createdAt,value
2022-09-06T00:01:00.987Z,4.38
2022-09-06T00:03:28.328Z,4.50
2022-09-06T00:05:55.479Z,4.82
2022-09-06T00:08:22.021Z,4.53
2022-09-06T00:10:48.676Z,4.40
2022-09-06T00:13:15.143Z,5.18
2022-09-06T00:15:41.791Z,5.30
2022-09-06T00:18:08.752Z,5.82
2022-09-06T00:20:41.465Z,5.72
2022-09-06T00:23:08.276Z,4.65
2022-09-06T00:25:35.348Z,4.85
2022-09-06T00:28:05.007Z,6.00
2022-09-06T00:30:32.854Z,5.13
2022-09-06T00:32:59.416Z,5.20
2022-09-06T00:35:26.857Z,4.75
2022-09-06T00:37:58.934Z,6.00
2022-09-06T00:40:26.030Z,5.25
2022-09-06T00:42:52.767Z,5.78
2022-09-06T00:45:19.951Z,5.57
2022-09-06T00:47:48.310Z,4.93
2022-09-06T00:50:17.838Z,5.57
2022-09-06T00:52:46.858Z,5.53
2022-09-06T00:55:13.742Z,5.20
2022-09-06T00:57:40.415Z,5.28
2022-09-06T01:00:09.619Z,5.13
2022-09-06T01:02:36.833Z,5.35
2022-09-06T01:05:05.046Z,5.57
2022-09-06T01:08:18.141Z,5.07
2022-09-06T01:11:17.618Z,5.10
2022-09-06T01:13:54.871Z,5.05
2022-09-06T01:16:24.320Z,5.40
2022-09-06T01:19:08.958Z,5.15
2022-09-06T01:22:08.279Z,4.75
2022-09-06T01:25:01.521Z,5.20
2022-09-06T01:27:31.020Z,5.43
2022-09-06T01:30:05.992Z,5.32
2022-09-06T01:32:47.512Z,4.93
2022-09-06T01:35:38.084Z,4.75
2022-09-06T01:38:06.136Z,4.70
2022-09-06T01:40:36.492Z,4.15
2022-09-06T01:43:11.196Z,4.68
2022-09-06T01:45:56.084Z,5.07
2022-09-06T01:48:41.520Z,5.03
2022-09-06T01:51:44.901Z,4.55
2022-09-06T01:54:14.541Z,3.83
2022-09-06T01:56:59.712Z,4.45
2022-09-06T01:59:45.080Z,4.43
2022-09-06T02:02:27.005Z,5.38
2022-09-06T02:05:01.511Z,5.30
2022-09-06T02:07:31.034Z,4.65
2022-09-06T02:10:17.006Z,4.50
2022-09-06T02:12:46.237Z,4.70
2022-09-06T02:15:34.617Z,4.75
2022-09-06T02:18:06.274Z,4.57
2022-09-06T02:20:36.657Z,4.72
2022-09-06T02:23:06.269Z,4.95
2022-09-06T02:25:38.944Z,4.70
2022-09-06T02:28:09.416Z,4.18
2022-09-06T02:30:41.019Z,4.60
2022-09-06T02:33:12.751Z,4.78
2022-09-06T02:35:49.613Z,4.80
2022-09-06T02:40:44.161Z,3.70
2022-09-06T02:43:10.642Z,4.35
2022-09-06T02:45:37.230Z,4.35
2022-09-06T02:48:04.086Z,4.80
2022-09-06T02:50:30.962Z,4.30
2022-09-06T02:53:06.002Z,5.00
2022-09-06T02:55:32.857Z,5.32
2022-09-06T02:57:59.426Z,4.60
2022-09-06T03:00:26.941Z,4.40
2022-09-06T03:02:53.618Z,4.85
2022-09-06T03:05:20.430Z,4.30
2022-09-06T03:07:47.003Z,4.18
2022-09-06T03:10:13.514Z,4.38
2022-09-06T03:12:41.653Z,4.35
2022-09-06T03:15:08.685Z,4.18
2022-09-06T03:17:35.474Z,4.40
2022-09-06T03:20:02.202Z,4.53
2022-09-06T03:22:28.762Z,4.28
2022-09-06T03:24:55.278Z,4.70
2022-09-06T03:27:21.752Z,4.22
2022-09-06T03:29:48.245Z,4.07
2022-09-06T03:32:14.910Z,4.10
2022-09-06T03:34:41.556Z,4.40
2022-09-06T03:37:08.051Z,4.43
2022-09-06T03:39:34.639Z,3.85
2022-09-06T03:42:01.128Z,4.60
2022-09-06T03:44:27.648Z,4.10
2022-09-06T03:46:54.197Z,3.83
2022-09-06T03:49:20.819Z,4.45
2022-09-06T03:51:47.353Z,4.05
2022-09-06T03:54:13.847Z,3.95
2022-09-06T03:56:40.333Z,4.25
2022-09-06T03:59:06.892Z,4.15
2022-09-06T04:01:33.640Z,4.40
2022-09-06T04:04:01.557Z,4.07
2022-09-06T04:06:28.761Z,4.15
2022-09-06T04:08:55.252Z,4.00
2022-09-06T04:11:21.761Z,4.50
2022-09-06T04:13:48.821Z,3.80
2022-09-06T04:16:17.628Z,3.70
2022-09-06T04:18:44.336Z,3.42
2022-09-06T04:21:10.897Z,3.83
2022-09-06T04:23:39.962Z,3.95
2022-09-06T04:26:06.787Z,4.80
2022-09-06T04:28:33.316Z,4.72
2022-09-06T04:31:04.974Z,3.78
2022-09-06T04:33:34.276Z,4.15
2022-09-06T04:36:02.459Z,4.20
2022-09-06T04:38:30.567Z,4.35
2022-09-06T04:40:57.137Z,4.20
2022-09-06T04:43:24.270Z,3.78
2022-09-06T04:45:50.974Z,4.53
2022-09-06T04:48:17.620Z,4.03
2022-09-06T04:50:44.339Z,3.90
2022-09-06T04:53:11.113Z,4.13
2022-09-06T04:55:38.241Z,4.20
2022-09-06T04:58:05.631Z,4.20
2022-09-06T05:00:34.211Z,4.32
2022-09-06T05:03:00.777Z,4.60
2022-09-06T05:05:27.288Z,4.40
2022-09-06T05:07:54.389Z,4.43
2022-09-06T05:10:22.734Z,4.05
2022-09-06T05:12:50.701Z,4.80
2022-09-06T05:15:18.524Z,4.07
2022-09-06T05:17:45.096Z,3.88
2022-09-06T05:20:12.384Z,3.80
2022-09-06T05:22:39.976Z,4.28
2022-09-06T05:25:08.348Z,4.43
2022-09-06T05:27:34.926Z,4.13
2022-09-06T05:30:01.474Z,4.13
2022-09-06T05:32:28.034Z,4.30
2022-09-06T05:34:54.555Z,3.85
2022-09-06T05:37:21.046Z,4.38
2022-09-06T05:42:19.009Z,4.07
2022-09-06T05:44:45.790Z,4.03
2022-09-06T05:49:38.787Z,3.78
2022-09-06T05:54:31.998Z,3.22
2022-09-06T05:56:58.541Z,4.07
2022-09-06T05:59:25.251Z,3.70
2022-09-06T06:01:53.344Z,4.30
2022-09-06T06:04:21.062Z,4.10
2022-09-06T06:06:49.018Z,3.97
2022-09-06T06:09:16.193Z,3.80
2022-09-06T06:11:42.879Z,3.92
2022-09-06T06:14:09.502Z,4.43
2022-09-06T06:16:36.687Z,4.78
2022-09-06T06:19:03.276Z,4.55
2022-09-06T06:21:31.142Z,3.92
2022-09-06T06:23:59.956Z,4.25
2022-09-06T06:26:27.888Z,4.68
2022-09-06T06:28:55.584Z,4.30
2022-09-06T06:31:22.810Z,4.20
2022-09-06T06:33:50.313Z,4.72
2022-09-06T06:36:22.701Z,4.40
2022-09-06T06:38:51.485Z,3.90
2022-09-06T06:41:19.934Z,4.38
2022-09-06T06:43:46.479Z,4.22
2022-09-06T06:46:15.519Z,4.30
2022-09-06T06:48:46.333Z,3.65
2022-09-06T06:51:16.767Z,3.95
2022-09-06T06:53:47.624Z,3.65
2022-09-06T06:56:31.853Z,4.45
2022-09-06T06:59:00.304Z,3.50
2022-09-06T07:01:29.002Z,4.05
2022-09-06T07:03:56.122Z,3.75
2022-09-06T07:09:09.735Z,4.47
2022-09-06T07:11:36.278Z,3.65
2022-09-06T07:14:02.822Z,3.42
2022-09-06T07:16:30.085Z,3.97
2022-09-06T07:18:56.761Z,3.67
2022-09-06T07:21:43.447Z,4.18
2022-09-06T07:24:10.559Z,3.77
2022-09-06T07:26:39.494Z,3.88
2022-09-06T07:29:07.254Z,3.58
2022-09-06T07:34:22.109Z,3.60
2022-09-06T07:36:48.780Z,3.85
2022-09-06T07:39:15.457Z,3.70
2022-09-06T07:41:43.243Z,4.20
2022-09-06T07:44:09.962Z,4.38
2022-09-06T07:46:36.547Z,4.55
2022-09-06T07:49:05.996Z,4.30
2022-09-06T07:51:32.876Z,4.38
2022-09-06T07:54:29.460Z,4.38
2022-09-06T07:56:47.444Z,4.28
2022-09-06T07:59:13.987Z,4.53
2022-09-06T08:01:41.344Z,4.93
2022-09-06T08:04:10.318Z,4.70
2022-09-06T08:09:25.414Z,4.57
2022-09-06T08:11:52.807Z,4.15
2022-09-06T08:14:19.997Z,4.43
2022-09-06T08:16:46.584Z,4.38
2022-09-06T08:19:14.601Z,4.10
2022-09-06T08:21:41.427Z,4.03
2022-09-06T08:24:12.258Z,4.45
2022-09-06T08:26:40.713Z,4.28
2022-09-06T08:29:08.936Z,4.13
2022-09-06T08:31:38.608Z,4.68
2022-09-06T08:34:05.522Z,4.65
2022-09-06T08:36:32.840Z,3.92
2022-09-06T08:39:01.356Z,3.58
2022-09-06T08:41:31.306Z,3.67
2022-09-06T08:47:10.309Z,4.40
2022-09-06T08:49:40.797Z,4.03
2022-09-06T08:52:20.533Z,3.88
2022-09-06T08:54:46.953Z,4.05
2022-09-06T08:57:30.707Z,3.53
2022-09-06T09:00:02.727Z,4.32
2022-09-06T09:02:41.371Z,4.10
2022-09-06T09:05:32.145Z,3.95
2022-09-06T09:08:25.636Z,3.55
2022-09-06T09:11:01.112Z,3.70
2022-09-06T09:13:33.624Z,3.45
2022-09-06T09:16:00.380Z,3.50
2022-09-06T09:18:34.130Z,3.55
2022-09-06T09:21:00.743Z,3.35
2022-09-06T09:23:29.834Z,3.50
2022-09-06T09:26:01.607Z,3.78
2022-09-06T09:28:28.524Z,3.58
2022-09-06T09:30:56.732Z,3.47
2022-09-06T09:33:38.781Z,3.00
2022-09-06T09:36:09.911Z,3.40
2022-09-06T09:38:49.304Z,3.38
2022-09-06T09:41:27.985Z,3.65
2022-09-06T09:44:01.161Z,3.20
2022-09-06T09:46:33.992Z,3.75
2022-09-06T09:49:06.551Z,3.78
2022-09-06T09:51:36.648Z,4.18
2022-09-06T09:54:06.681Z,3.63
2022-09-06T09:56:38.499Z,3.83
2022-09-06T09:59:17.245Z,4.10
2022-09-06T10:01:44.160Z,3.97
2022-09-06T10:07:10.011Z,3.55
2022-09-06T10:09:39.477Z,3.63
2022-09-06T10:12:06.767Z,3.60
2022-09-06T10:14:45.276Z,3.55
2022-09-06T10:17:20.724Z,3.63
2022-09-06T10:19:48.277Z,3.88
2022-09-06T10:22:23.726Z,3.58
2022-09-06T10:25:02.256Z,3.28
2022-09-06T10:27:29.039Z,2.92
2022-09-06T10:30:04.916Z,3.38
2022-09-06T10:32:42.644Z,3.33
2022-09-06T10:35:16.414Z,3.15
2022-09-06T10:37:52.459Z,3.42
2022-09-06T10:40:32.026Z,3.85
2022-09-06T10:43:00.548Z,3.33
2022-09-06T10:45:54.759Z,3.58
2022-09-06T10:48:28.800Z,3.60
2022-09-06T10:51:07.083Z,3.38
2022-09-06T10:53:42.371Z,2.95
2022-09-06T10:56:13.125Z,3.67
2022-09-06T11:01:41.833Z,3.03
2022-09-06T11:04:25.798Z,3.72
2022-09-06T11:06:57.701Z,3.03
2022-09-06T11:09:38.851Z,2.95
2022-09-06T11:12:12.200Z,2.85
2022-09-06T11:14:40.024Z,2.90
2022-09-06T11:17:10.189Z,3.10
2022-09-06T11:19:44.281Z,3.30
2022-09-06T11:22:50.165Z,2.63
2022-09-06T11:25:16.644Z,3.17
2022-09-06T11:27:47.784Z,3.20
2022-09-06T11:30:16.639Z,3.00
2022-09-06T11:32:49.037Z,3.08
2022-09-06T11:35:32.201Z,2.95
2022-09-06T11:38:05.178Z,3.25
2022-09-06T11:40:44.035Z,3.10
2022-09-06T11:43:35.938Z,3.03
2022-09-06T11:46:05.305Z,3.38
2022-09-06T11:48:48.445Z,3.22
2022-09-06T11:51:38.436Z,2.50
2022-09-06T11:54:22.017Z,2.83
2022-09-06T11:57:02.718Z,2.90
2022-09-06T11:59:56.178Z,2.92
2022-09-06T12:02:41.225Z,2.90
2022-09-06T12:05:12.050Z,3.00
2022-09-06T12:08:10.673Z,3.10
2022-09-06T12:10:40.318Z,2.80
2022-09-06T12:13:44.511Z,2.78
2022-09-06T12:16:12.138Z,3.05
2022-09-06T12:18:47.815Z,3.58
2022-09-06T12:21:38.674Z,3.53
2022-09-06T12:24:09.794Z,3.20
2022-09-06T12:26:55.369Z,3.28
2022-09-06T12:29:26.859Z,3.13
2022-09-06T12:32:01.986Z,3.40
2022-09-06T12:34:34.608Z,2.95
2022-09-06T12:37:05.269Z,3.08
2022-09-06T12:39:32.021Z,2.80
2022-09-06T12:42:02.554Z,3.00
2022-09-06T12:44:32.846Z,3.08
2022-09-06T12:47:06.073Z,2.63
2022-09-06T12:49:32.693Z,2.85
2022-09-06T12:52:07.601Z,2.97
2022-09-06T12:54:42.964Z,3.28
2022-09-06T12:57:17.177Z,3.20
2022-09-06T12:59:54.131Z,2.88
2022-09-06T13:02:27.600Z,2.50
2022-09-06T13:05:02.672Z,2.88
2022-09-06T13:07:31.733Z,3.17
2022-09-06T13:09:58.845Z,2.70
2022-09-06T13:12:33.458Z,2.78
2022-09-06T13:15:17.161Z,3.15
2022-09-06T13:17:43.675Z,2.78
2022-09-06T13:20:22.889Z,2.85
2022-09-06T13:22:51.489Z,2.60
2022-09-06T13:25:24.849Z,3.08
2022-09-06T13:27:58.221Z,3.05
2022-09-06T13:30:32.224Z,2.75
2022-09-06T13:32:59.808Z,3.40
2022-09-06T13:35:29.450Z,3.47
2022-09-06T13:38:31.876Z,3.00
2022-09-06T13:41:12.627Z,2.85
2022-09-06T13:43:47.786Z,2.78
2022-09-06T13:46:14.435Z,2.55
2022-09-06T13:48:41.617Z,2.70
2022-09-06T13:51:09.845Z,2.90
2022-09-06T13:53:36.485Z,3.13
2022-09-06T13:56:03.141Z,2.90
2022-09-06T13:58:29.941Z,3.05
2022-09-06T14:00:56.961Z,3.00
2022-09-06T14:03:32.549Z,2.80
2022-09-06T14:06:02.650Z,2.80
2022-09-06T14:08:43.641Z,3.00
2022-09-06T14:11:17.028Z,3.28
2022-09-06T14:13:44.248Z,2.85
2022-09-06T14:16:11.846Z,2.90
2022-09-06T14:18:38.590Z,2.85
2022-09-06T14:21:05.502Z,3.08
2022-09-06T14:23:32.080Z,2.72
2022-09-06T14:26:00.662Z,3.08
2022-09-06T14:28:27.669Z,3.10
2022-09-06T14:30:55.047Z,3.03
2022-09-06T14:33:21.742Z,2.83
2022-09-06T14:35:49.240Z,2.95
2022-09-06T14:38:15.910Z,3.33
2022-09-06T14:40:45.298Z,2.97
2022-09-06T14:43:11.948Z,2.88
2022-09-06T14:45:38.611Z,2.90
2022-09-06T14:48:05.690Z,2.70
2022-09-06T14:50:32.291Z,3.00
2022-09-06T14:52:58.866Z,3.50
2022-09-06T14:55:25.442Z,3.30
2022-09-06T14:57:59.611Z,2.92
2022-09-06T15:00:26.317Z,3.08
2022-09-06T15:02:56.043Z,3.30
2022-09-06T15:05:22.796Z,3.58
2022-09-06T15:07:49.706Z,2.72
2022-09-06T15:10:16.592Z,3.15
2022-09-06T15:12:43.159Z,4.20
2022-09-06T15:15:10.193Z,3.35
2022-09-06T15:17:37.248Z,2.78
2022-09-06T15:20:04.292Z,2.90
2022-09-06T15:22:31.221Z,3.15
2022-09-06T15:24:58.030Z,3.38
2022-09-06T15:27:24.633Z,3.03
2022-09-06T15:29:51.193Z,2.78
2022-09-06T15:32:17.801Z,3.00
2022-09-06T15:34:44.296Z,3.10
2022-09-06T15:37:10.940Z,3.60
2022-09-06T15:39:37.522Z,3.33
2022-09-06T15:42:04.293Z,2.95
2022-09-06T15:44:30.949Z,3.00
2022-09-06T15:46:59.275Z,3.20
2022-09-06T15:49:32.000Z,3.45
2022-09-06T15:52:01.088Z,2.88
2022-09-06T15:54:46.955Z,3.33
2022-09-06T15:57:16.261Z,2.97
2022-09-06T15:59:42.973Z,3.15
2022-09-06T16:02:10.066Z,3.33
2022-09-06T16:04:36.743Z,3.17
2022-09-06T16:07:03.797Z,3.65
2022-09-06T16:09:30.926Z,3.28
2022-09-06T16:11:57.741Z,3.33
2022-09-06T16:14:24.300Z,3.47
2022-09-06T16:16:53.833Z,3.38
2022-09-06T16:19:20.574Z,2.97
2022-09-06T16:21:47.154Z,3.35
2022-09-06T16:24:14.469Z,3.60
2022-09-06T16:26:44.453Z,3.28
2022-09-06T16:29:13.270Z,3.22
2022-09-06T16:31:40.867Z,3.53
2022-09-06T16:34:11.917Z,3.53
2022-09-06T16:36:38.958Z,3.40
2022-09-06T16:39:06.418Z,2.97
2022-09-06T16:41:42.599Z,3.35
2022-09-06T16:46:37.030Z,3.10
2022-09-06T16:49:04.617Z,3.70
2022-09-06T16:51:31.905Z,3.03
2022-09-06T16:53:59.957Z,3.20
2022-09-06T16:56:29.369Z,3.53
2022-09-06T16:58:58.692Z,3.03
2022-09-06T17:01:27.467Z,3.30
2022-09-06T17:03:54.576Z,3.58
2022-09-06T17:06:22.134Z,3.25
2022-09-06T17:08:49.058Z,3.42
2022-09-06T17:11:19.019Z,3.15
2022-09-06T17:13:48.130Z,3.13
2022-09-06T17:16:33.749Z,3.45
2022-09-06T17:19:01.385Z,3.22
2022-09-06T17:21:29.396Z,3.28
2022-09-06T17:23:58.219Z,3.65
2022-09-06T17:26:24.850Z,3.05
2022-09-06T17:28:51.721Z,2.70
2022-09-06T17:31:25.490Z,3.35
2022-09-06T17:33:53.374Z,3.20
2022-09-06T17:36:25.881Z,2.97
2022-09-06T17:38:53.964Z,2.97
2022-09-06T17:44:48.803Z,2.60
2022-09-06T17:47:16.088Z,2.95
2022-09-06T17:49:42.835Z,2.92
2022-09-06T17:52:09.774Z,3.00
2022-09-06T17:54:36.507Z,3.30
2022-09-06T17:57:03.075Z,2.92
2022-09-06T17:59:35.060Z,3.20
2022-09-06T18:02:02.302Z,3.22
2022-09-06T18:04:28.881Z,3.88
2022-09-06T18:06:55.475Z,3.33
2022-09-06T18:09:22.439Z,3.33
2022-09-06T18:11:49.219Z,3.50
2022-09-06T18:14:20.697Z,3.33
2022-09-06T18:16:49.301Z,3.20
2022-09-06T18:19:17.658Z,3.60
2022-09-06T18:21:44.849Z,3.42
2022-09-06T18:24:13.862Z,3.38
2022-09-06T18:26:41.678Z,3.60
2022-09-06T18:29:12.060Z,3.13
2022-09-06T18:31:39.606Z,3.08
2022-09-06T18:34:07.348Z,3.88
2022-09-06T18:36:33.867Z,3.78
2022-09-06T18:39:05.094Z,3.45
2022-09-06T18:41:53.808Z,3.50
2022-09-06T18:44:20.673Z,3.10
2022-09-06T18:46:48.010Z,3.30
2022-09-06T18:49:15.618Z,3.60
2022-09-06T18:51:43.486Z,4.05
2022-09-06T18:54:11.065Z,3.67
2022-09-06T18:56:37.966Z,3.83
2022-09-06T18:59:05.711Z,4.05
2022-09-06T19:01:33.416Z,3.90
2022-09-06T19:04:01.146Z,3.53
2022-09-06T19:06:29.465Z,4.10
2022-09-06T19:09:00.704Z,4.05
2022-09-06T19:11:27.889Z,3.65
2022-09-06T19:13:56.238Z,3.60
2022-09-06T19:16:24.459Z,4.28
2022-09-06T19:18:51.193Z,3.25
2022-09-06T19:21:19.692Z,3.35
2022-09-06T19:23:54.121Z,3.50
2022-09-06T19:26:22.463Z,3.72
2022-09-06T19:28:57.317Z,3.85
2022-09-06T19:31:25.642Z,3.70
2022-09-06T19:33:53.980Z,3.95
2022-09-06T19:36:22.258Z,4.05
2022-09-06T19:39:05.784Z,3.92
2022-09-06T19:41:38.601Z,3.97
2022-09-06T19:44:08.540Z,4.28
2022-09-06T19:46:35.728Z,3.80
2022-09-06T19:49:02.435Z,3.50
2022-09-06T19:51:29.165Z,3.55
2022-09-06T19:54:00.167Z,3.58
2022-09-06T19:56:32.670Z,3.33
2022-09-06T19:59:01.774Z,3.40
2022-09-06T20:01:31.190Z,3.42
2022-09-06T20:03:59.109Z,3.70
2022-09-06T20:06:27.035Z,3.45
2022-09-06T20:08:55.527Z,3.42
2022-09-06T20:11:24.176Z,4.15
2022-09-06T20:13:50.967Z,3.78
2022-09-06T20:16:20.568Z,3.53
2022-09-06T20:18:48.397Z,4.30
2022-09-06T20:21:15.118Z,3.97
2022-09-06T20:23:42.061Z,3.65
2022-09-06T20:26:16.097Z,3.72
2022-09-06T20:28:44.133Z,4.15
2022-09-06T20:31:14.118Z,3.47
2022-09-06T20:33:40.725Z,4.05
2022-09-06T20:36:09.226Z,3.90
2022-09-06T20:38:38.246Z,4.05
2022-09-06T20:41:13.118Z,3.60
2022-09-06T20:43:40.628Z,4.00
2022-09-06T20:46:15.636Z,3.90
2022-09-06T20:48:44.872Z,3.78
2022-09-06T20:51:15.639Z,3.58
2022-09-06T20:53:42.669Z,3.45
2022-09-06T20:56:14.127Z,4.03
2022-09-06T20:58:41.367Z,3.85
2022-09-06T21:01:11.874Z,3.50
2022-09-06T21:03:40.952Z,4.00
2022-09-06T21:06:09.650Z,4.00
2022-09-06T21:08:41.858Z,3.65
2022-09-06T21:11:09.877Z,3.75
2022-09-06T21:13:37.362Z,3.90
2022-09-06T21:16:04.934Z,3.42
2022-09-06T21:18:32.881Z,3.28
2022-09-06T21:21:01.613Z,3.47
2022-09-06T21:23:30.345Z,3.85
2022-09-06T21:25:59.280Z,3.63
2022-09-06T21:28:29.025Z,4.07
2022-09-06T21:31:09.920Z,3.22
2022-09-06T21:33:38.099Z,3.25
2022-09-06T21:36:08.098Z,3.70
2022-09-06T21:38:36.864Z,3.30
2022-09-06T21:41:04.615Z,3.17
2022-09-06T21:43:31.787Z,3.88
2022-09-06T21:46:02.951Z,3.90
2022-09-06T21:48:29.779Z,3.72
2022-09-06T21:50:56.472Z,3.33
2022-09-06T21:53:23.736Z,3.67
2022-09-06T21:55:50.340Z,3.38
2022-09-06T21:58:16.912Z,3.72
2022-09-06T22:00:46.135Z,3.80
2022-09-06T22:03:12.718Z,3.53
2022-09-06T22:05:39.422Z,3.35
2022-09-06T22:08:06.045Z,3.30
2022-09-06T22:10:32.585Z,3.42
2022-09-06T22:12:59.136Z,3.55
2022-09-06T22:15:25.750Z,3.92
2022-09-06T22:17:52.353Z,3.22
2022-09-06T22:20:19.317Z,3.28
2022-09-06T22:22:46.290Z,3.30
2022-09-06T22:25:13.887Z,3.00
2022-09-06T22:27:41.400Z,3.03
2022-09-06T22:30:08.649Z,3.70
2022-09-06T22:32:35.130Z,3.20
2022-09-06T22:35:01.810Z,3.20
2022-09-06T22:37:28.350Z,3.28
2022-09-06T22:39:54.956Z,3.03
2022-09-06T22:42:21.514Z,2.90
